createdAt,value
2023-02-23T00:01:55.328Z,30.40
2023-02-23T00:04:24.510Z,32.20
2023-02-23T00:06:53.442Z,32.37
2023-02-23T00:09:24.245Z,33.27
2023-02-23T00:11:53.178Z,31.70
2023-02-23T00:14:21.244Z,32.47
2023-02-23T00:16:49.210Z,28.60
2023-02-23T00:19:18.472Z,33.10
2023-02-23T00:21:46.724Z,32.30
2023-02-23T00:24:16.609Z,33.30
2023-02-23T00:26:45.319Z,33.37
2023-02-23T00:29:17.367Z,37.10
2023-02-23T00:31:45.927Z,32.30
2023-02-23T00:34:16.410Z,34.70
2023-02-23T00:36:45.742Z,33.00
2023-02-23T00:39:21.590Z,35.37
2023-02-23T00:41:50.256Z,34.37
2023-02-23T00:44:18.468Z,36.07
2023-02-23T00:46:49.128Z,36.00
2023-02-23T00:49:17.193Z,35.53
2023-02-23T00:51:46.848Z,36.10
2023-02-23T00:54:16.054Z,35.37
2023-02-23T00:56:44.232Z,33.50
2023-02-23T00:59:13.086Z,33.87
2023-02-23T01:01:42.629Z,34.77
2023-02-23T01:04:11.440Z,33.57
2023-02-23T01:06:41.291Z,36.33
2023-02-23T01:09:13.725Z,34.03
2023-02-23T01:11:41.878Z,33.50
2023-02-23T01:14:11.184Z,35.30
2023-02-23T01:16:39.346Z,35.70
2023-02-23T01:19:07.942Z,38.97
2023-02-23T01:21:38.526Z,36.43
2023-02-23T01:24:08.121Z,37.17
2023-02-23T01:26:39.532Z,36.03
2023-02-23T01:29:09.432Z,37.93
2023-02-23T01:31:39.287Z,36.03
2023-02-23T01:34:07.949Z,34.63
2023-02-23T01:36:38.843Z,36.07
2023-02-23T01:39:09.144Z,37.57
2023-02-23T01:41:38.812Z,32.77
2023-02-23T01:44:08.721Z,37.37
2023-02-23T01:46:38.985Z,34.70
2023-02-23T01:49:09.280Z,37.17
2023-02-23T01:51:42.938Z,34.03
2023-02-23T01:54:14.500Z,32.47
2023-02-23T01:56:49.237Z,38.20
2023-02-23T01:59:18.733Z,35.10
2023-02-23T02:01:48.238Z,35.83
2023-02-23T02:04:19.521Z,35.37
2023-02-23T02:06:53.365Z,38.67
2023-02-23T02:09:25.593Z,39.10
2023-02-23T02:11:55.013Z,34.97
2023-02-23T02:14:28.392Z,36.57
2023-02-23T02:17:14.893Z,42.47
2023-02-23T02:20:28.566Z,35.03
2023-02-23T02:23:38.439Z,41.37
2023-02-23T02:26:16.735Z,36.43
2023-02-23T02:29:31.605Z,35.23
2023-02-23T02:32:29.027Z,35.97
2023-02-23T02:35:40.029Z,32.77
2023-02-23T02:38:18.693Z,38.43
2023-02-23T02:40:54.197Z,35.63
2023-02-23T02:43:32.103Z,40.03
2023-02-23T02:46:07.553Z,39.63
2023-02-23T02:48:43.307Z,37.80
2023-02-23T02:51:21.655Z,41.77
2023-02-23T02:53:56.865Z,35.77
2023-02-23T02:56:27.441Z,38.00
2023-02-23T02:58:56.774Z,35.57
2023-02-23T03:01:42.229Z,37.87
2023-02-23T03:04:40.477Z,36.33
2023-02-23T03:07:31.787Z,35.63
2023-02-23T03:10:27.052Z,34.97
2023-02-23T03:13:25.465Z,29.10
2023-02-23T03:16:19.204Z,28.40
2023-02-23T03:19:28.019Z,29.27
2023-02-23T03:22:19.542Z,31.57
2023-02-23T03:25:12.582Z,31.93
2023-02-23T03:28:07.203Z,34.10
2023-02-23T03:31:02.022Z,34.87
2023-02-23T03:33:55.646Z,34.57
2023-02-23T03:36:45.809Z,34.80
2023-02-23T03:39:41.729Z,35.20
2023-02-23T03:42:32.287Z,33.17
2023-02-23T03:45:23.849Z,32.00
2023-02-23T03:48:12.289Z,32.80
2023-02-23T03:51:01.640Z,33.50
2023-02-23T03:53:53.805Z,34.23
2023-02-23T03:56:44.736Z,34.10
2023-02-23T03:59:34.199Z,37.20
2023-02-23T04:02:22.183Z,40.83
2023-02-23T04:05:08.483Z,35.23
2023-02-23T04:07:57.181Z,35.30
2023-02-23T04:10:45.089Z,38.33
2023-02-23T04:13:17.995Z,37.77
2023-02-23T04:15:50.598Z,37.93
2023-02-23T04:18:24.132Z,38.93
2023-02-23T04:20:52.112Z,37.77
2023-02-23T04:23:20.075Z,36.17
2023-02-23T04:25:48.148Z,37.50
2023-02-23T04:28:16.854Z,39.87
2023-02-23T04:30:45.216Z,37.67
2023-02-23T04:33:13.122Z,35.33
2023-02-23T04:35:42.740Z,35.80
2023-02-23T04:38:10.857Z,42.77
2023-02-23T04:40:38.836Z,38.17
2023-02-23T04:43:06.786Z,36.37
2023-02-23T04:45:34.840Z,41.90
2023-02-23T04:48:02.697Z,39.13
2023-02-23T04:50:32.543Z,36.50
2023-02-23T04:53:01.923Z,39.53
2023-02-23T04:55:29.847Z,39.30
2023-02-23T04:58:00.311Z,36.57
2023-02-23T05:00:30.221Z,39.87
2023-02-23T05:02:58.343Z,47.67
2023-02-23T05:05:26.574Z,42.43
2023-02-23T05:07:55.076Z,41.00
2023-02-23T05:10:24.652Z,43.20
2023-02-23T05:12:52.788Z,42.00
2023-02-23T05:15:21.092Z,41.33
2023-02-23T05:17:49.139Z,39.53
2023-02-23T05:20:17.115Z,41.47
2023-02-23T05:22:44.971Z,40.40
2023-02-23T05:25:13.224Z,37.93
2023-02-23T05:27:42.493Z,38.37
2023-02-23T05:30:11.696Z,39.30
2023-02-23T05:32:39.602Z,37.40
2023-02-23T05:35:09.033Z,35.47
2023-02-23T05:37:37.686Z,36.70
2023-02-23T05:40:06.547Z,37.63
2023-02-23T05:42:34.531Z,37.57
2023-02-23T05:45:05.862Z,37.30
2023-02-23T05:47:38.399Z,41.50
2023-02-23T05:50:07.353Z,39.83
2023-02-23T05:52:38.944Z,32.93
2023-02-23T05:55:08.228Z,36.13
2023-02-23T05:57:36.281Z,35.70
2023-02-23T06:00:07.189Z,37.27
2023-02-23T06:02:36.632Z,34.20
2023-02-23T06:05:05.951Z,33.70
2023-02-23T06:07:33.830Z,33.97
2023-02-23T06:10:01.724Z,34.50
2023-02-23T06:12:29.639Z,36.20
2023-02-23T06:14:58.010Z,33.13
2023-02-23T06:17:27.296Z,32.77
2023-02-23T06:19:55.176Z,36.90
2023-02-23T06:22:23.081Z,38.30
2023-02-23T06:24:50.984Z,38.17
2023-02-23T06:27:18.849Z,37.00
2023-02-23T06:29:46.991Z,33.27
2023-02-23T06:32:14.936Z,34.40
2023-02-23T06:34:49.483Z,32.17
2023-02-23T06:37:17.464Z,35.00
2023-02-23T06:39:45.384Z,36.97
2023-02-23T06:42:13.279Z,38.50
2023-02-23T06:44:41.132Z,36.97
2023-02-23T06:47:09.192Z,32.63
2023-02-23T06:49:37.437Z,37.73
2023-02-23T06:52:06.765Z,35.57
2023-02-23T06:54:35.016Z,39.90
2023-02-23T06:57:02.964Z,38.80
2023-02-23T06:59:31.390Z,35.97
2023-02-23T07:01:59.458Z,33.43
2023-02-23T07:04:27.360Z,38.60
2023-02-23T07:06:55.286Z,34.83
2023-02-23T07:09:24.666Z,32.93
2023-02-23T07:11:52.860Z,34.63
2023-02-23T07:14:26.526Z,33.17
2023-02-23T07:16:55.165Z,31.93
2023-02-23T07:19:23.290Z,34.40
2023-02-23T07:21:51.222Z,36.20
2023-02-23T07:24:19.146Z,33.60
2023-02-23T07:26:49.484Z,31.97
2023-02-23T07:29:17.529Z,33.73
2023-02-23T07:31:45.634Z,31.90
2023-02-23T07:34:13.602Z,30.60
2023-02-23T07:36:41.492Z,31.87
2023-02-23T07:39:09.462Z,35.27
2023-02-23T07:41:37.673Z,32.63
2023-02-23T07:44:11.993Z,33.27
2023-02-23T07:46:39.936Z,34.33
2023-02-23T07:49:07.916Z,38.17
2023-02-23T07:51:35.775Z,32.20
2023-02-23T07:54:05.596Z,34.30
2023-02-23T07:56:34.163Z,34.27
2023-02-23T07:59:02.293Z,30.47
2023-02-23T08:01:31.896Z,33.53
2023-02-23T08:03:59.844Z,37.83
2023-02-23T08:06:27.746Z,37.43
2023-02-23T08:08:55.629Z,35.13
2023-02-23T08:11:23.494Z,35.80
2023-02-23T08:13:51.374Z,33.87
2023-02-23T08:16:19.380Z,33.73
2023-02-23T08:18:48.705Z,35.50
2023-02-23T08:21:16.687Z,34.33
2023-02-23T08:23:44.712Z,32.83
2023-02-23T08:26:12.667Z,35.03
2023-02-23T08:28:41.780Z,33.23
2023-02-23T08:31:11.028Z,35.17
2023-02-23T08:33:39.110Z,32.23
2023-02-23T08:36:09.636Z,30.43
2023-02-23T08:38:37.719Z,32.83
2023-02-23T08:41:06.936Z,30.77
2023-02-23T08:43:34.861Z,30.07
2023-02-23T08:46:02.864Z,39.90
2023-02-23T08:48:30.755Z,37.72
2023-02-23T08:50:59.014Z,32.97
2023-02-23T08:53:29.593Z,31.37
2023-02-23T08:55:59.087Z,30.13
2023-02-23T08:58:27.411Z,39.30
2023-02-23T09:00:55.624Z,38.40
2023-02-23T09:03:25.894Z,39.22
2023-02-23T09:05:53.905Z,40.20
2023-02-23T09:08:22.884Z,40.25
2023-02-23T09:10:52.147Z,41.40
2023-02-23T09:13:20.220Z,41.67
2023-02-23T09:15:48.846Z,41.05
2023-02-23T09:18:17.392Z,41.53
2023-02-23T09:20:46.418Z,40.78
2023-02-23T09:23:14.605Z,41.05
2023-02-23T09:25:44.131Z,41.88
2023-02-23T09:28:15.048Z,40.28
2023-02-23T09:30:44.309Z,37.35
2023-02-23T09:50:49.212Z,28.60
2023-02-23T09:53:34.122Z,38.10
2023-02-23T09:56:06.494Z,41.42
2023-02-23T09:58:35.533Z,40.90
2023-02-23T10:01:40.900Z,40.38
2023-02-23T10:04:13.390Z,42.70
2023-02-23T10:06:43.861Z,42.13
2023-02-23T10:09:20.364Z,41.90
2023-02-23T10:11:57.101Z,39.80
2023-02-23T10:14:36.117Z,40.10
2023-02-23T10:17:20.256Z,39.95
2023-02-23T10:19:57.105Z,39.92
2023-02-23T10:22:26.568Z,41.38
2023-02-23T10:24:59.356Z,38.50
2023-02-23T10:27:33.572Z,38.80
2023-02-23T10:30:04.828Z,39.38
2023-02-23T10:32:42.244Z,39.47
2023-02-23T10:35:13.261Z,38.23
2023-02-23T10:37:41.456Z,32.00
2023-02-23T10:40:16.645Z,30.03
2023-02-23T10:42:44.792Z,28.37
2023-02-23T10:45:22.645Z,28.50
2023-02-23T10:47:58.837Z,27.10
2023-02-23T10:50:28.935Z,27.73
2023-02-23T10:53:00.797Z,24.73
2023-02-23T10:55:30.480Z,26.03
2023-02-23T10:58:10.812Z,25.43
2023-02-23T11:00:40.892Z,25.53
2023-02-23T11:03:23.564Z,25.27
2023-02-23T11:05:53.646Z,24.33
2023-02-23T11:08:26.039Z,23.73
2023-02-23T11:10:59.756Z,23.20
2023-02-23T11:13:30.127Z,24.47
2023-02-23T11:16:03.461Z,21.53
2023-02-23T11:18:33.316Z,24.97
2023-02-23T11:21:01.936Z,22.63
2023-02-23T11:23:32.475Z,24.20
2023-02-23T11:26:03.891Z,25.20
2023-02-23T11:28:34.817Z,25.03
2023-02-23T11:31:05.224Z,24.07
2023-02-23T11:33:37.238Z,25.40
2023-02-23T11:36:26.927Z,24.03
2023-02-23T11:39:08.085Z,23.70
2023-02-23T11:41:37.381Z,22.50
2023-02-23T11:44:06.485Z,22.73
2023-02-23T11:46:39.702Z,26.70
2023-02-23T11:49:15.621Z,26.23
2023-02-23T11:51:48.985Z,26.65
2023-02-23T11:54:23.468Z,23.47
2023-02-23T11:56:55.109Z,22.43
2023-02-23T11:59:29.815Z,20.87
2023-02-23T12:02:05.540Z,21.87
2023-02-23T12:04:37.334Z,23.17
2023-02-23T12:07:37.318Z,23.20
2023-02-23T12:10:15.211Z,22.50
2023-02-23T12:12:54.686Z,21.17
2023-02-23T12:15:29.761Z,20.83
2023-02-23T12:18:02.743Z,23.53
2023-02-23T12:20:35.721Z,21.27
2023-02-23T12:23:07.419Z,24.00
2023-02-23T12:25:39.683Z,22.70
2023-02-23T12:28:19.191Z,23.40
2023-02-23T12:30:53.014Z,23.77
2023-02-23T12:33:30.072Z,21.07
2023-02-23T12:36:04.704Z,21.33
2023-02-23T12:38:40.888Z,20.47
2023-02-23T12:41:13.619Z,21.17
2023-02-23T12:43:49.191Z,20.47
2023-02-23T12:46:22.341Z,20.37
2023-02-23T12:48:58.203Z,18.70
2023-02-23T12:51:34.746Z,20.03
2023-02-23T12:54:02.929Z,16.93
2023-02-23T12:56:43.898Z,16.00
2023-02-23T12:59:42.599Z,14.17
2023-02-23T13:02:19.662Z,14.10
2023-02-23T13:05:02.467Z,14.17
2023-02-23T13:07:44.740Z,14.73
2023-02-23T13:10:21.959Z,14.63
2023-02-23T13:13:00.211Z,14.60
2023-02-23T13:15:45.493Z,13.47
2023-02-23T13:18:19.645Z,12.77
2023-02-23T13:20:52.648Z,13.23
2023-02-23T13:23:32.503Z,13.70
2023-02-23T13:26:10.745Z,13.07
2023-02-23T13:28:49.766Z,12.83
2023-02-23T13:31:25.322Z,15.57
2023-02-23T13:33:56.071Z,14.50
2023-02-23T13:36:24.957Z,15.37
2023-02-23T13:39:27.894Z,15.67
2023-02-23T13:42:20.333Z,14.77
2023-02-23T13:44:54.080Z,14.73
2023-02-23T13:47:34.642Z,13.67
2023-02-23T13:50:14.424Z,13.90
2023-02-23T13:52:44.443Z,12.70
2023-02-23T13:55:49.858Z,11.07
2023-02-23T13:58:25.397Z,12.13
2023-02-23T14:01:06.726Z,11.20
2023-02-23T14:03:42.153Z,9.73
2023-02-23T14:06:15.650Z,11.03
2023-02-23T14:08:46.042Z,10.00
2023-02-23T14:11:30.892Z,10.90
2023-02-23T14:14:03.652Z,10.30
2023-02-23T14:16:32.309Z,9.67
2023-02-23T14:19:26.805Z,9.73
2023-02-23T14:22:02.189Z,9.63
2023-02-23T14:24:30.351Z,8.17
2023-02-23T14:27:38.405Z,9.23
2023-02-23T14:30:20.721Z,8.13
2023-02-23T14:32:50.735Z,8.13
2023-02-23T14:35:49.206Z,8.07
2023-02-23T14:38:46.866Z,8.33
2023-02-23T14:41:15.726Z,8.87
2023-02-23T14:43:46.322Z,8.70
2023-02-23T14:46:21.417Z,9.83
2023-02-23T14:49:01.415Z,10.40
2023-02-23T14:51:41.975Z,8.60
2023-02-23T14:54:23.014Z,9.27
2023-02-23T14:56:52.626Z,8.17
2023-02-23T14:59:22.921Z,7.63
2023-02-23T15:01:53.480Z,7.77
2023-02-23T15:04:23.337Z,7.70
2023-02-23T15:06:56.153Z,7.93
2023-02-23T15:09:31.971Z,8.10
2023-02-23T15:12:02.079Z,8.10
2023-02-23T15:14:33.811Z,7.37
2023-02-23T15:17:03.495Z,7.50
2023-02-23T15:19:34.992Z,7.30
2023-02-23T15:22:05.425Z,6.87
2023-02-23T15:24:41.960Z,6.87
2023-02-23T15:27:18.611Z,7.13
2023-02-23T15:29:46.537Z,7.00
2023-02-23T15:32:21.046Z,7.10
2023-02-23T15:34:49.876Z,6.70
2023-02-23T15:37:25.285Z,6.77
2023-02-23T15:39:57.016Z,6.60
2023-02-23T15:42:27.973Z,7.00
2023-02-23T15:45:02.224Z,6.70
2023-02-23T15:47:35.736Z,6.13
2023-02-23T15:50:16.515Z,6.33
2023-02-23T15:52:51.168Z,5.77
2023-02-23T15:55:24.873Z,7.40
2023-02-23T15:57:55.998Z,7.80
2023-02-23T16:00:32.914Z,7.63
2023-02-23T16:03:04.761Z,6.17
2023-02-23T16:05:46.503Z,6.57
2023-02-23T16:08:22.918Z,6.40
2023-02-23T16:10:57.454Z,6.43
2023-02-23T16:13:27.198Z,6.40
2023-02-23T16:15:56.370Z,6.40
2023-02-23T16:18:35.260Z,6.00
2023-02-23T16:21:05.495Z,6.70
2023-02-23T16:23:37.151Z,7.33
2023-02-23T16:26:12.036Z,7.37
2023-02-23T16:28:44.432Z,7.37
2023-02-23T16:31:14.420Z,6.90
2023-02-23T16:33:45.385Z,6.87
2023-02-23T16:36:21.564Z,7.13
2023-02-23T16:38:58.917Z,6.93
2023-02-23T16:41:28.218Z,6.90
2023-02-23T16:43:58.862Z,7.37
2023-02-23T16:46:30.819Z,7.03
2023-02-23T16:49:10.209Z,7.40
2023-02-23T16:51:38.587Z,7.13
2023-02-23T16:54:06.799Z,7.53
2023-02-23T16:56:35.691Z,7.93
2023-02-23T16:59:05.303Z,8.17
2023-02-23T17:01:33.187Z,8.33
2023-02-23T17:04:02.589Z,8.67
2023-02-23T17:06:30.511Z,8.50
2023-02-23T17:08:58.782Z,8.00
2023-02-23T17:11:27.260Z,8.03
2023-02-23T17:13:55.143Z,8.40
2023-02-23T17:16:23.504Z,7.80
2023-02-23T17:18:51.758Z,8.37
2023-02-23T17:21:23.798Z,8.10
2023-02-23T17:23:53.333Z,7.67
2023-02-23T17:26:23.526Z,7.70
2023-02-23T17:28:51.824Z,7.93
2023-02-23T17:31:21.223Z,8.37
2023-02-23T17:33:49.803Z,8.17
2023-02-23T17:36:19.836Z,8.13
2023-02-23T17:38:47.854Z,8.10
2023-02-23T17:41:18.214Z,7.70
2023-02-23T17:43:46.610Z,7.87
2023-02-23T17:46:14.979Z,8.27
2023-02-23T17:48:44.589Z,8.13
2023-02-23T17:51:13.348Z,8.37
2023-02-23T17:53:42.646Z,7.73
2023-02-23T17:56:11.506Z,8.20
2023-02-23T17:58:40.028Z,8.37
2023-02-23T18:01:09.013Z,7.67
2023-02-23T18:03:38.212Z,8.13
2023-02-23T18:06:08.389Z,8.47
2023-02-23T18:08:37.788Z,8.93
2023-02-23T18:11:07.850Z,8.27
2023-02-23T18:13:35.991Z,8.40
2023-02-23T18:16:09.037Z,8.37
2023-02-23T18:18:38.400Z,8.73
2023-02-23T18:21:12.226Z,8.07
2023-02-23T18:23:40.573Z,9.50
2023-02-23T18:26:12.013Z,9.53
2023-02-23T18:28:44.132Z,8.80
2023-02-23T18:31:14.487Z,9.83
2023-02-23T18:33:42.416Z,9.37
2023-02-23T18:36:21.400Z,10.17
2023-02-23T18:38:49.461Z,10.00
2023-02-23T18:41:19.778Z,10.17
2023-02-23T18:43:48.336Z,9.07
2023-02-23T18:46:19.337Z,10.23
2023-02-23T18:48:51.281Z,10.40
2023-02-23T18:51:20.459Z,9.37
2023-02-23T18:53:49.323Z,9.67
2023-02-23T18:56:22.747Z,9.77
2023-02-23T18:58:51.014Z,10.00
2023-02-23T19:01:21.437Z,9.53
2023-02-23T19:03:50.600Z,9.97
2023-02-23T19:06:19.231Z,10.47
2023-02-23T19:08:53.994Z,10.63
2023-02-23T19:11:25.550Z,10.30
2023-02-23T19:13:53.761Z,11.37
2023-02-23T19:16:22.098Z,11.53
2023-02-23T19:18:50.107Z,12.23
2023-02-23T19:21:22.632Z,13.43
2023-02-23T19:23:51.560Z,10.13
2023-02-23T19:26:20.244Z,9.07
2023-02-23T19:28:49.694Z,8.77
2023-02-23T19:31:21.044Z,7.97
2023-02-23T19:33:50.478Z,7.23
2023-02-23T19:36:22.031Z,7.30
2023-02-23T19:38:50.043Z,6.27
2023-02-23T19:41:20.846Z,7.73
2023-02-23T19:43:50.311Z,7.53
2023-02-23T19:46:18.663Z,6.80
2023-02-23T19:48:51.752Z,9.23
2023-02-23T19:51:20.047Z,8.40
2023-02-23T19:53:48.175Z,9.03
2023-02-23T19:56:17.466Z,8.20
2023-02-23T19:58:46.779Z,8.80
2023-02-23T20:01:18.294Z,8.60
2023-02-23T20:03:49.434Z,7.97
2023-02-23T20:06:18.976Z,7.00
2023-02-23T20:08:48.209Z,6.80
2023-02-23T20:11:16.449Z,6.30
2023-02-23T20:13:44.319Z,8.13
2023-02-23T20:16:14.209Z,8.10
2023-02-23T20:18:44.685Z,7.47
2023-02-23T20:21:15.321Z,7.90
2023-02-23T20:23:44.641Z,8.23
2023-02-23T20:26:15.765Z,8.20
2023-02-23T20:28:43.834Z,7.60
2023-02-23T20:31:16.055Z,8.27
2023-02-23T20:33:45.363Z,7.13
2023-02-23T20:36:13.269Z,6.70
2023-02-23T20:38:41.136Z,6.50
2023-02-23T20:41:09.223Z,6.90
2023-02-23T20:43:38.700Z,6.23
2023-02-23T20:46:07.223Z,5.50
2023-02-23T20:48:36.397Z,5.30
2023-02-23T20:51:08.393Z,6.27
2023-02-23T20:53:36.528Z,4.67
2023-02-23T20:56:05.987Z,4.10
2023-02-23T20:58:34.340Z,3.77
2023-02-23T21:01:06.291Z,3.97
2023-02-23T21:03:35.935Z,3.63
2023-02-23T21:06:05.539Z,4.23
2023-02-23T21:08:33.532Z,4.00
2023-02-23T21:11:06.330Z,3.90
2023-02-23T21:13:34.750Z,4.97
2023-02-23T21:16:03.099Z,4.27
2023-02-23T21:18:31.786Z,4.23
2023-02-23T21:21:09.473Z,4.43
2023-02-23T21:23:40.078Z,3.83
2023-02-23T21:26:14.181Z,4.03
2023-02-23T21:28:43.387Z,3.37
2023-02-23T21:31:12.777Z,3.37
2023-02-23T21:33:41.938Z,3.23
2023-02-23T21:36:11.126Z,3.77
2023-02-23T21:38:41.569Z,3.10
2023-02-23T21:41:10.795Z,3.27
2023-02-23T21:43:40.079Z,2.90
2023-02-23T21:46:08.682Z,3.07
2023-02-23T21:48:36.643Z,3.20
2023-02-23T21:51:05.726Z,3.27
2023-02-23T21:53:34.303Z,3.50
2023-02-23T21:56:11.551Z,3.30
2023-02-23T21:58:40.078Z,3.77
2023-02-23T22:01:12.511Z,2.83
2023-02-23T22:03:59.428Z,2.93
2023-02-23T22:06:30.870Z,3.10
2023-02-23T22:08:58.954Z,3.43
2023-02-23T22:11:28.958Z,3.10
2023-02-23T22:13:59.873Z,3.10
2023-02-23T22:16:31.483Z,3.33
2023-02-23T22:19:03.611Z,3.53
2023-02-23T22:21:33.369Z,3.90
2023-02-23T22:24:05.327Z,2.73
2023-02-23T22:26:37.252Z,3.10
2023-02-23T22:29:06.177Z,3.73
2023-02-23T22:31:34.737Z,3.37
2023-02-23T22:34:03.146Z,3.23
2023-02-23T22:36:31.251Z,3.53
2023-02-23T22:39:00.028Z,3.33
2023-02-23T22:41:29.633Z,3.27
2023-02-23T22:43:59.980Z,3.33
2023-02-23T22:46:28.173Z,3.17
2023-02-23T22:48:56.314Z,3.42
2023-02-23T22:51:24.643Z,3.50
2023-02-23T22:53:52.743Z,3.33
2023-02-23T22:56:20.821Z,3.60
2023-02-23T22:58:49.749Z,3.20
2023-02-23T23:01:20.261Z,3.57
2023-02-23T23:03:48.837Z,4.20
2023-02-23T23:06:22.062Z,4.53
2023-02-23T23:08:53.547Z,3.70
2023-02-23T23:11:25.912Z,3.30
2023-02-23T23:14:00.459Z,4.23
2023-02-23T23:16:33.394Z,3.33
2023-02-23T23:19:03.972Z,3.00
2023-02-23T23:21:33.800Z,3.17
2023-02-23T23:24:05.794Z,3.80
2023-02-23T23:26:36.558Z,3.50
2023-02-23T23:29:06.826Z,3.40
2023-02-23T23:31:37.214Z,2.90
2023-02-23T23:34:09.397Z,3.10
2023-02-23T23:36:42.769Z,3.57
2023-02-23T23:39:12.986Z,4.43
2023-02-23T23:41:43.116Z,4.00
2023-02-23T23:44:13.084Z,3.60
2023-02-23T23:46:44.667Z,3.33
2023-02-23T23:49:15.862Z,3.93
2023-02-23T23:51:45.885Z,3.60
2023-02-23T23:54:16.145Z,3.80
2023-02-23T23:56:44.677Z,3.50
2023-02-23T23:59:16.357Z,3.83
